createdAt,value
2022-11-16T00:01:30.523Z,73.20
2022-11-16T00:04:02.155Z,68.90
2022-11-16T00:06:30.695Z,71.50
2022-11-16T00:09:01.855Z,73.70
2022-11-16T00:11:30.134Z,75.40
2022-11-16T00:14:03.695Z,76.50
2022-11-16T00:16:33.775Z,77.70
2022-11-16T00:19:05.273Z,78.70
2022-11-16T00:21:33.966Z,79.80
2022-11-16T00:24:02.602Z,80.60
2022-11-16T00:26:30.598Z,77.30
2022-11-16T00:28:58.841Z,70.60
2022-11-16T00:31:27.051Z,68.80
2022-11-16T00:33:55.208Z,72.40
2022-11-16T00:36:23.532Z,74.30
2022-11-16T00:38:54.583Z,75.60
2022-11-16T00:41:23.687Z,77.10
2022-11-16T00:43:51.586Z,78.10
2022-11-16T00:46:19.678Z,79.20
2022-11-16T00:48:48.310Z,79.90
2022-11-16T00:51:16.548Z,80.60
2022-11-16T00:53:44.815Z,81.20
2022-11-16T00:56:13.376Z,73.20
2022-11-16T00:58:44.837Z,69.10
2022-11-16T01:01:16.748Z,71.10
2022-11-16T01:03:45.237Z,73.60
2022-11-16T01:06:15.778Z,75.30
2022-11-16T01:08:45.224Z,76.60
2022-11-16T01:11:17.373Z,77.70
2022-11-16T01:13:46.079Z,78.80
2022-11-16T01:16:16.921Z,79.70
2022-11-16T01:18:49.252Z,80.60
2022-11-16T01:21:18.335Z,81.00
2022-11-16T01:23:46.555Z,78.50
2022-11-16T01:26:14.969Z,71.30
2022-11-16T01:28:43.856Z,69.50
2022-11-16T01:31:14.045Z,72.80
2022-11-16T01:33:43.034Z,74.60
2022-11-16T01:36:22.668Z,76.00
2022-11-16T01:38:51.044Z,77.40
2022-11-16T01:41:26.602Z,78.50
2022-11-16T01:43:59.415Z,79.50
2022-11-16T01:46:34.330Z,80.50
2022-11-16T01:49:17.511Z,81.00
2022-11-16T01:51:50.644Z,81.60
2022-11-16T01:54:19.801Z,73.40
2022-11-16T01:56:58.018Z,69.10
2022-11-16T01:59:34.301Z,72.20
2022-11-16T02:02:07.877Z,74.50
2022-11-16T02:04:36.266Z,76.00
2022-11-16T02:07:15.908Z,77.20
2022-11-16T02:09:50.561Z,78.60
2022-11-16T02:12:44.882Z,79.50
2022-11-16T02:15:38.964Z,80.40
2022-11-16T02:18:24.646Z,81.40
2022-11-16T02:21:12.037Z,81.10
2022-11-16T02:24:10.989Z,72.90
2022-11-16T02:27:08.955Z,69.70
2022-11-16T02:29:57.750Z,73.80
2022-11-16T02:32:37.744Z,76.50
2022-11-16T02:35:06.104Z,77.20
2022-11-16T02:37:38.883Z,78.40
2022-11-16T02:40:11.414Z,79.40
2022-11-16T02:42:45.884Z,80.40
2022-11-16T02:45:21.488Z,81.20
2022-11-16T02:47:52.709Z,81.70
2022-11-16T02:50:23.666Z,77.60
2022-11-16T02:52:54.587Z,71.10
2022-11-16T02:55:26.327Z,70.50
2022-11-16T02:58:02.106Z,74.00
2022-11-16T03:00:44.899Z,75.90
2022-11-16T03:03:30.441Z,77.00
2022-11-16T03:06:13.053Z,78.40
2022-11-16T03:09:09.700Z,79.50
2022-11-16T03:11:44.322Z,80.40
2022-11-16T03:14:20.736Z,81.40
2022-11-16T03:16:58.343Z,81.90
2022-11-16T03:19:36.146Z,79.90
2022-11-16T03:22:07.767Z,72.80
2022-11-16T03:24:40.058Z,70.40
2022-11-16T03:27:23.528Z,73.80
2022-11-16T03:30:23.749Z,75.70
2022-11-16T03:33:16.958Z,77.30
2022-11-16T03:36:10.427Z,78.50
2022-11-16T03:38:41.550Z,79.80
2022-11-16T03:41:11.465Z,80.70
2022-11-16T03:43:40.893Z,81.60
2022-11-16T03:46:09.516Z,82.10
2022-11-16T03:48:40.986Z,80.30
2022-11-16T03:51:15.874Z,72.50
2022-11-16T03:53:44.263Z,71.00
2022-11-16T03:56:13.687Z,74.30
2022-11-16T03:58:41.883Z,76.10
2022-11-16T04:01:10.153Z,77.40
2022-11-16T04:03:39.126Z,78.40
2022-11-16T04:06:11.196Z,79.60
2022-11-16T04:08:39.490Z,80.40
2022-11-16T04:11:17.308Z,81.30
2022-11-16T04:13:47.232Z,82.00
2022-11-16T04:16:15.553Z,82.50
2022-11-16T04:18:45.671Z,80.10
2022-11-16T04:21:35.926Z,72.90
2022-11-16T04:24:04.297Z,71.10
2022-11-16T04:26:32.905Z,74.60
2022-11-16T04:29:01.254Z,76.20
2022-11-16T04:31:29.488Z,77.50
2022-11-16T04:34:10.345Z,78.60
2022-11-16T04:36:42.441Z,79.80
2022-11-16T04:39:12.184Z,80.80
2022-11-16T04:41:40.803Z,81.50
2022-11-16T04:44:09.023Z,82.30
2022-11-16T04:46:38.479Z,82.60
2022-11-16T04:49:07.033Z,80.10
2022-11-16T04:51:35.146Z,73.30
2022-11-16T04:54:03.715Z,70.50
2022-11-16T04:56:32.091Z,74.30
2022-11-16T04:59:00.160Z,76.00
2022-11-16T05:01:28.734Z,77.20
2022-11-16T05:05:18.915Z,78.10
2022-11-16T05:07:48.889Z,79.10
2022-11-16T05:10:23.955Z,80.50
2022-11-16T05:12:53.640Z,81.30
2022-11-16T05:15:22.587Z,82.20
2022-11-16T05:17:50.844Z,82.70
2022-11-16T05:20:22.974Z,78.50
2022-11-16T05:22:57.151Z,71.80
2022-11-16T05:25:33.810Z,72.40
2022-11-16T05:28:06.904Z,75.30
2022-11-16T05:30:39.620Z,77.00
2022-11-16T05:33:08.088Z,78.10
2022-11-16T05:35:40.193Z,79.30
2022-11-16T05:38:08.760Z,80.30
2022-11-16T05:40:41.875Z,81.10
2022-11-16T05:43:10.213Z,82.00
2022-11-16T05:45:44.429Z,82.70
2022-11-16T05:48:15.651Z,83.00
2022-11-16T05:50:44.599Z,83.20
2022-11-16T05:53:20.167Z,76.30
2022-11-16T05:55:49.625Z,71.60
2022-11-16T05:58:19.304Z,72.90
2022-11-16T06:00:49.311Z,75.60
2022-11-16T06:03:18.879Z,77.00
2022-11-16T06:05:47.330Z,78.40
2022-11-16T06:08:17.859Z,79.50
2022-11-16T06:10:46.370Z,80.50
2022-11-16T06:13:14.764Z,81.30
2022-11-16T06:15:50.717Z,82.20
2022-11-16T06:18:20.052Z,82.90
2022-11-16T06:20:49.759Z,83.30
2022-11-16T06:23:20.529Z,83.40
2022-11-16T06:25:53.441Z,76.50
2022-11-16T06:28:22.558Z,71.60
2022-11-16T06:30:51.183Z,73.40
2022-11-16T06:33:19.270Z,75.80
2022-11-16T06:35:47.953Z,77.40
2022-11-16T06:38:20.389Z,78.60
2022-11-16T06:40:52.833Z,79.80
2022-11-16T06:43:23.267Z,80.60
2022-11-16T06:45:52.983Z,81.60
2022-11-16T06:48:22.313Z,82.40
2022-11-16T06:50:52.668Z,82.90
2022-11-16T06:53:28.812Z,83.40
2022-11-16T06:56:04.719Z,83.60
2022-11-16T06:58:37.923Z,75.70
2022-11-16T07:01:09.312Z,70.80
2022-11-16T07:03:39.686Z,74.40
2022-11-16T07:06:11.961Z,76.70
2022-11-16T07:08:42.155Z,78.10
2022-11-16T07:11:12.564Z,79.10
2022-11-16T07:13:40.883Z,80.10
2022-11-16T07:16:12.495Z,81.10
2022-11-16T07:18:47.077Z,81.90
2022-11-16T07:21:16.847Z,82.70
2022-11-16T07:23:46.290Z,83.20
2022-11-16T07:26:19.444Z,83.60
2022-11-16T07:28:58.354Z,83.70
2022-11-16T07:31:26.773Z,75.90
2022-11-16T07:34:24.397Z,72.00
2022-11-16T07:37:03.661Z,75.60
2022-11-16T07:39:32.015Z,77.60
2022-11-16T07:42:00.178Z,78.80
2022-11-16T07:44:44.609Z,79.90
2022-11-16T07:47:12.783Z,81.00
2022-11-16T07:49:41.195Z,81.90
2022-11-16T07:52:18.502Z,82.80
2022-11-16T07:55:01.091Z,83.50
2022-11-16T07:57:31.103Z,83.90
2022-11-16T08:00:02.993Z,84.10
2022-11-16T08:02:41.320Z,78.40
2022-11-16T08:05:16.835Z,73.00
2022-11-16T08:07:45.396Z,73.40
2022-11-16T08:10:13.791Z,76.80
2022-11-16T08:12:42.483Z,78.00
2022-11-16T08:15:11.957Z,79.30
2022-11-16T08:17:40.321Z,80.40
2022-11-16T08:22:23.594Z,80.70
2022-11-16T08:24:51.729Z,81.90
2022-11-16T08:27:20.065Z,82.90
2022-11-16T08:29:52.842Z,83.40
2022-11-16T08:32:22.516Z,83.80
2022-11-16T08:34:50.764Z,77.60
2022-11-16T08:37:19.083Z,72.50
2022-11-16T08:39:48.696Z,74.30
2022-11-16T08:42:17.218Z,77.10
2022-11-16T08:44:48.543Z,78.60
2022-11-16T08:47:19.658Z,79.70
2022-11-16T08:49:59.990Z,80.60
2022-11-16T08:52:31.239Z,81.80
2022-11-16T08:55:00.955Z,82.70
2022-11-16T08:57:30.403Z,83.40
2022-11-16T09:00:01.191Z,83.80
2022-11-16T09:02:29.462Z,84.10
2022-11-16T09:04:57.762Z,80.10
2022-11-16T09:07:26.123Z,73.70
2022-11-16T09:09:54.446Z,73.90
2022-11-16T09:12:22.830Z,78.00
2022-11-16T09:14:51.009Z,80.40
2022-11-16T09:17:22.957Z,81.30
2022-11-16T09:19:51.725Z,81.90
2022-11-16T09:22:20.329Z,82.80
2022-11-16T09:24:48.627Z,80.40
2022-11-16T09:27:17.064Z,74.60
2022-11-16T09:29:45.277Z,72.90
2022-11-16T09:32:13.643Z,70.40
2022-11-16T09:34:41.892Z,68.30
2022-11-16T09:37:10.088Z,66.20
2022-11-16T09:39:38.279Z,64.20
2022-11-16T09:42:09.479Z,62.90
2022-11-16T09:44:58.958Z,61.90
2022-11-16T09:47:42.845Z,64.20
2022-11-16T09:50:39.287Z,67.70
2022-11-16T09:53:31.766Z,69.80
2022-11-16T09:56:08.965Z,71.70
2022-11-16T09:59:05.177Z,73.40
2022-11-16T10:01:47.194Z,74.30
2022-11-16T10:04:18.770Z,75.30
2022-11-16T10:07:04.595Z,75.80
2022-11-16T10:09:33.338Z,71.10
2022-11-16T10:12:14.528Z,67.20
2022-11-16T10:15:13.784Z,65.30
2022-11-16T10:17:57.042Z,63.30
2022-11-16T10:20:41.748Z,67.20
2022-11-16T10:23:39.322Z,69.90
2022-11-16T10:26:07.432Z,71.90
2022-11-16T10:28:51.325Z,73.20
2022-11-16T10:31:49.586Z,74.70
2022-11-16T10:34:23.538Z,75.90
2022-11-16T10:36:54.363Z,77.00
2022-11-16T10:39:23.423Z,77.80
2022-11-16T10:41:52.106Z,72.90
2022-11-16T10:45:00.787Z,68.50
2022-11-16T10:47:42.216Z,68.20
2022-11-16T10:50:39.234Z,72.60
2022-11-16T10:53:12.337Z,74.50
2022-11-16T10:55:40.792Z,75.90
2022-11-16T10:58:09.041Z,77.30
2022-11-16T11:00:47.547Z,78.50
2022-11-16T11:03:29.592Z,79.40
2022-11-16T11:05:58.253Z,80.30
2022-11-16T11:08:31.560Z,80.90
2022-11-16T11:11:07.545Z,76.40
2022-11-16T11:13:35.876Z,71.10
2022-11-16T11:16:19.586Z,70.70
2022-11-16T11:18:47.726Z,74.10
2022-11-16T11:21:22.156Z,76.70
2022-11-16T11:23:52.585Z,78.00
2022-11-16T11:26:35.974Z,79.40
2022-11-16T11:29:19.778Z,80.40
2022-11-16T11:32:00.744Z,80.90
2022-11-16T11:34:32.277Z,73.80
2022-11-16T11:37:05.750Z,71.40
2022-11-16T11:39:36.443Z,68.40
2022-11-16T11:42:19.036Z,66.60
2022-11-16T11:45:09.611Z,64.50
2022-11-16T11:47:57.504Z,65.00
2022-11-16T11:50:44.797Z,68.40
2022-11-16T11:53:26.571Z,71.20
2022-11-16T11:55:59.282Z,72.90
2022-11-16T11:58:31.941Z,74.50
2022-11-16T12:01:24.878Z,75.70
2022-11-16T12:04:08.978Z,76.60
2022-11-16T12:06:43.772Z,77.50
2022-11-16T12:09:19.756Z,71.20
2022-11-16T12:12:00.186Z,67.90
2022-11-16T12:15:12.792Z,65.80
2022-11-16T12:18:13.156Z,63.90
2022-11-16T12:20:59.420Z,62.20
2022-11-16T12:23:46.036Z,66.70
2022-11-16T12:26:44.575Z,69.40
2022-11-16T12:30:09.855Z,71.70
2022-11-16T12:32:55.843Z,73.50
2022-11-16T12:35:30.080Z,75.00
2022-11-16T12:38:04.374Z,76.20
2022-11-16T12:41:00.417Z,76.80
2022-11-16T12:43:40.853Z,69.70
2022-11-16T12:46:13.478Z,66.70
2022-11-16T12:49:05.780Z,64.90
2022-11-16T12:51:33.946Z,62.70
2022-11-16T12:55:18.979Z,61.20
2022-11-16T12:58:10.911Z,64.90
2022-11-16T13:00:52.601Z,68.60
2022-11-16T13:03:52.497Z,71.00
2022-11-16T13:07:11.917Z,72.70
2022-11-16T13:09:47.217Z,74.20
2022-11-16T13:12:19.984Z,75.40
2022-11-16T13:14:49.408Z,71.10
2022-11-16T13:17:29.488Z,67.00
2022-11-16T13:20:26.623Z,65.50
2022-11-16T13:23:23.582Z,63.10
2022-11-16T13:26:08.039Z,60.60
2022-11-16T13:28:49.773Z,59.90
2022-11-16T13:31:55.243Z,63.40
2022-11-16T13:34:32.032Z,67.10
2022-11-16T13:37:00.338Z,70.20
2022-11-16T13:39:59.318Z,71.30
2022-11-16T13:42:28.715Z,73.10
2022-11-16T13:45:18.249Z,74.20
2022-11-16T13:47:55.118Z,71.10
2022-11-16T13:50:38.748Z,66.80
2022-11-16T13:56:09.679Z,63.10
2022-11-16T13:58:44.554Z,66.80
2022-11-16T14:01:14.554Z,69.30
2022-11-16T14:03:44.846Z,71.50
2022-11-16T14:06:25.350Z,73.30
2022-11-16T14:08:58.163Z,75.10
2022-11-16T14:11:38.462Z,76.40
2022-11-16T14:14:11.895Z,77.40
2022-11-16T14:16:51.307Z,78.60
2022-11-16T14:19:43.826Z,72.10
2022-11-16T14:22:27.718Z,68.30
2022-11-16T14:25:21.430Z,69.80
2022-11-16T14:28:08.296Z,73.10
2022-11-16T14:31:07.305Z,74.90
2022-11-16T14:33:37.786Z,76.50
2022-11-16T14:36:10.351Z,77.90
2022-11-16T14:38:43.425Z,79.20
2022-11-16T14:41:22.181Z,80.30
2022-11-16T14:43:53.770Z,73.50
2022-11-16T14:46:28.572Z,70.50
2022-11-16T14:48:58.686Z,69.20
2022-11-16T14:51:39.699Z,72.80
2022-11-16T14:54:37.274Z,75.00
2022-11-16T14:57:18.343Z,76.90
2022-11-16T14:59:46.683Z,78.30
2022-11-16T15:02:26.989Z,79.60
2022-11-16T15:04:55.865Z,75.30
2022-11-16T15:07:25.323Z,71.50
2022-11-16T15:09:56.502Z,68.70
2022-11-16T15:12:28.388Z,70.20
2022-11-16T15:15:01.557Z,72.90
2022-11-16T15:17:33.299Z,74.70
2022-11-16T15:20:20.098Z,76.30
2022-11-16T15:22:54.313Z,77.70
2022-11-16T15:25:43.458Z,79.10
2022-11-16T15:28:19.046Z,74.30
2022-11-16T15:30:51.334Z,71.10
2022-11-16T15:33:41.725Z,67.70
2022-11-16T15:36:29.989Z,69.90
2022-11-16T15:39:01.046Z,72.90
2022-11-16T15:41:29.584Z,74.80
2022-11-16T15:44:15.667Z,76.20
2022-11-16T15:46:49.585Z,77.80
2022-11-16T15:49:30.330Z,78.20
2022-11-16T15:52:00.351Z,71.70
2022-11-16T15:54:31.130Z,69.20
2022-11-16T15:57:13.037Z,67.60
2022-11-16T15:59:41.600Z,71.00
2022-11-16T16:02:22.155Z,73.00
2022-11-16T16:04:51.125Z,74.70
2022-11-16T16:07:47.638Z,76.40
2022-11-16T16:10:21.746Z,77.80
2022-11-16T16:12:55.621Z,71.30
2022-11-16T16:15:30.017Z,68.90
2022-11-16T16:18:00.225Z,66.30
2022-11-16T16:20:33.213Z,70.00
2022-11-16T16:23:10.423Z,71.70
2022-11-16T16:25:39.094Z,73.60
2022-11-16T16:28:07.587Z,75.20
2022-11-16T16:30:35.944Z,76.40
2022-11-16T16:33:04.418Z,77.40
2022-11-16T16:35:32.680Z,70.80
2022-11-16T16:38:02.144Z,68.60
2022-11-16T16:40:30.928Z,65.80
2022-11-16T16:42:58.829Z,68.40
2022-11-16T16:45:38.530Z,71.10
2022-11-16T16:48:07.276Z,73.00
2022-11-16T16:50:35.689Z,74.80
2022-11-16T16:53:04.034Z,76.20
2022-11-16T16:55:36.995Z,71.60
2022-11-16T16:58:06.385Z,68.50
2022-11-16T17:00:34.863Z,65.40
2022-11-16T17:03:03.351Z,65.10
2022-11-16T17:05:31.985Z,68.00
2022-11-16T17:08:00.321Z,70.20
2022-11-16T17:10:28.757Z,72.40
2022-11-16T17:12:57.452Z,73.70
2022-11-16T17:15:26.019Z,69.70
2022-11-16T17:18:45.291Z,65.80
2022-11-16T17:21:13.551Z,65.20
2022-11-16T17:23:41.877Z,68.70
2022-11-16T17:26:10.346Z,70.70
2022-11-16T17:28:38.666Z,72.40
2022-11-16T17:31:09.521Z,73.30
2022-11-16T17:33:40.174Z,67.90
2022-11-16T17:36:11.497Z,64.90
2022-11-16T17:38:40.548Z,62.00
2022-11-16T17:41:12.918Z,63.20
2022-11-16T17:43:42.945Z,66.10
2022-11-16T17:46:17.192Z,68.60
2022-11-16T17:48:47.325Z,70.60
2022-11-16T17:51:18.705Z,73.00
2022-11-16T17:53:47.655Z,73.90
2022-11-16T17:56:18.330Z,70.20
2022-11-16T17:58:47.015Z,67.00
2022-11-16T18:01:15.394Z,64.00
2022-11-16T18:03:43.574Z,64.40
2022-11-16T18:06:13.856Z,67.20
2022-11-16T18:08:43.317Z,69.60
2022-11-16T18:11:12.745Z,71.40
2022-11-16T18:13:41.155Z,73.10
2022-11-16T18:16:19.702Z,74.50
2022-11-16T18:18:49.154Z,73.90
2022-11-16T18:21:20.768Z,67.90
2022-11-16T18:23:49.385Z,65.80
2022-11-16T18:26:20.219Z,64.30
2022-11-16T18:28:52.727Z,67.70
2022-11-16T18:31:23.259Z,69.80
2022-11-16T18:33:52.447Z,71.60
2022-11-16T18:36:22.252Z,73.10
2022-11-16T18:38:50.677Z,74.50
2022-11-16T18:41:20.057Z,75.80
2022-11-16T18:44:02.437Z,70.00
2022-11-16T18:46:32.885Z,66.70
2022-11-16T18:49:01.451Z,64.40
2022-11-16T18:51:30.338Z,67.00
2022-11-16T18:53:58.497Z,69.40
2022-11-16T18:56:26.713Z,71.30
2022-11-16T18:58:55.017Z,73.00
2022-11-16T19:01:25.352Z,74.40
2022-11-16T19:03:54.955Z,75.70
2022-11-16T19:06:24.251Z,70.40
2022-11-16T19:08:57.126Z,67.70
2022-11-16T19:11:26.612Z,63.90
2022-11-16T19:14:03.976Z,66.50
2022-11-16T19:16:34.446Z,69.10
2022-11-16T19:19:03.003Z,71.20
2022-11-16T19:21:31.695Z,72.70
2022-11-16T19:23:59.605Z,74.10
2022-11-16T19:26:29.216Z,75.50
2022-11-16T19:28:57.428Z,72.70
2022-11-16T19:31:30.165Z,68.40
2022-11-16T19:34:04.503Z,65.40
2022-11-16T19:36:34.689Z,66.50
2022-11-16T19:39:03.247Z,69.40
2022-11-16T19:41:31.513Z,71.30
2022-11-16T19:44:00.803Z,72.90
2022-11-16T19:46:31.105Z,74.20
2022-11-16T19:49:00.396Z,75.50
2022-11-16T19:51:32.991Z,73.80
2022-11-16T19:54:02.755Z,67.90
2022-11-16T19:56:31.515Z,65.90
2022-11-16T19:58:59.370Z,65.70
2022-11-16T20:01:29.192Z,68.70
2022-11-16T20:03:59.861Z,70.70
2022-11-16T20:06:29.680Z,72.50
2022-11-16T20:09:00.755Z,73.90
2022-11-16T20:11:32.794Z,75.20
2022-11-16T20:14:01.455Z,75.20
2022-11-16T20:16:38.345Z,69.20
2022-11-16T20:19:09.178Z,67.00
2022-11-16T20:21:40.128Z,64.80
2022-11-16T20:24:11.533Z,67.90
2022-11-16T20:26:43.688Z,70.00
2022-11-16T20:29:16.565Z,71.80
2022-11-16T20:31:45.278Z,73.20
2022-11-16T20:34:16.046Z,74.80
2022-11-16T20:36:46.761Z,76.10
2022-11-16T20:39:17.264Z,69.50
2022-11-16T20:41:46.004Z,66.80
2022-11-16T20:44:16.501Z,65.00
2022-11-16T20:46:45.509Z,68.00
2022-11-16T20:49:13.530Z,70.20
2022-11-16T20:51:42.625Z,72.10
2022-11-16T20:54:10.936Z,73.80
2022-11-16T20:56:38.964Z,75.00
2022-11-16T20:59:07.147Z,75.90
2022-11-16T21:01:35.521Z,70.00
2022-11-16T21:04:05.942Z,67.10
2022-11-16T21:06:34.678Z,65.00
2022-11-16T21:09:03.675Z,67.30
2022-11-16T21:11:33.125Z,69.50
2022-11-16T21:14:01.402Z,71.60
2022-11-16T21:16:48.409Z,73.00
2022-11-16T21:19:17.459Z,74.60
2022-11-16T21:21:45.557Z,76.00
2022-11-16T21:24:13.824Z,69.80
2022-11-16T21:26:42.118Z,66.90
2022-11-16T21:29:10.202Z,65.00
2022-11-16T21:31:38.449Z,67.30
2022-11-16T21:34:06.757Z,69.70
2022-11-16T21:36:35.169Z,71.50
2022-11-16T21:39:03.655Z,73.00
2022-11-16T21:41:31.960Z,74.40
2022-11-16T21:44:00.043Z,75.80
2022-11-16T21:46:28.303Z,71.30
2022-11-16T21:48:56.992Z,67.50
2022-11-16T21:51:25.942Z,65.70
2022-11-16T21:53:54.656Z,67.40
2022-11-16T21:56:23.675Z,70.00
2022-11-16T21:58:52.486Z,71.60
2022-11-16T22:01:21.712Z,73.20
2022-11-16T22:03:50.581Z,74.60
2022-11-16T22:06:18.710Z,75.80
2022-11-16T22:08:48.027Z,72.00
2022-11-16T22:11:17.779Z,68.30
2022-11-16T22:13:46.053Z,65.40
2022-11-16T22:16:15.595Z,66.50
2022-11-16T22:18:44.307Z,69.20
2022-11-16T22:21:12.348Z,71.10
2022-11-16T22:23:40.829Z,72.70
2022-11-16T22:26:11.797Z,74.20
2022-11-16T22:28:40.285Z,75.50
2022-11-16T22:31:12.228Z,73.60
2022-11-16T22:33:41.349Z,68.70
2022-11-16T22:36:12.716Z,65.60
2022-11-16T22:38:40.898Z,65.60
2022-11-16T22:41:09.775Z,68.60
2022-11-16T22:43:38.359Z,70.60
2022-11-16T22:46:06.649Z,72.30
2022-11-16T22:48:39.959Z,73.60
2022-11-16T22:51:21.437Z,75.10
2022-11-16T22:53:57.462Z,76.20
2022-11-16T22:56:27.040Z,69.20
2022-11-16T22:58:55.557Z,66.90
2022-11-16T23:01:24.137Z,65.00
2022-11-16T23:03:52.514Z,68.40
2022-11-16T23:06:20.932Z,70.40
2022-11-16T23:08:49.481Z,72.00
2022-11-16T23:11:18.733Z,73.70
2022-11-16T23:13:47.395Z,74.90
2022-11-16T23:16:15.633Z,75.90
2022-11-16T23:18:45.100Z,70.70
2022-11-16T23:21:13.342Z,67.20
2022-11-16T23:23:41.618Z,64.60
2022-11-16T23:26:19.885Z,66.70
2022-11-16T23:28:48.175Z,69.30
2022-11-16T23:31:16.354Z,71.20
2022-11-16T23:33:45.865Z,72.80
2022-11-16T23:36:14.940Z,74.10
2022-11-16T23:38:43.043Z,75.20
2022-11-16T23:41:11.207Z,76.50
2022-11-16T23:43:39.513Z,69.70
2022-11-16T23:46:07.795Z,67.10
2022-11-16T23:48:35.826Z,65.60
2022-11-16T23:51:04.204Z,68.30
2022-11-16T23:53:32.498Z,70.40
2022-11-16T23:56:06.035Z,72.00
2022-11-16T23:58:34.571Z,73.60
